sensor_id;sensor_type;location;lat;lon;timestamp;pressure;altitude;pressure_sealevel;temperature;humidity
27294;BME280;14785;52.556;13.430;2023-11-19T00:01:32;100821.16;;;6.23;100.00
27294;BME280;14785;52.556;13.430;2023-11-19T00:03:58;100817.69;;;6.22;100.00
27294;BME280;14785;52.556;13.430;2023-11-19T00:06:23;100802.50;;;6.04;100.00
27294;BME280;14785;52.556;13.430;2023-11-19T00:08:50;100800.84;;;6.34;100.00
27294;BME280;14785;52.556;13.430;2023-11-19T00:11:15;100790.47;;;6.42;100.00
27294;BME280;14785;52.556;13.430;2023-11-19T00:13:41;100786.63;;;6.46;100.00
27294;BME280;14785;52.556;13.430;2023-11-19T00:16:07;100776.06;;;6.46;100.00
27294;BME280;14785;52.556;13.430;2023-11-19T00:18:33;100771.03;;;6.43;100.00
27294;BME280;14785;52.556;13.430;2023-11-19T00:20:58;100772.69;;;6.44;100.00
27294;BME280;14785;52.556;13.430;2023-11-19T00:23:23;100752.78;;;6.61;100.00
27294;BME280;14785;52.556;13.430;2023-11-19T00:25:49;100746.75;;;6.49;100.00
27294;BME280;14785;52.556;13.430;2023-11-19T00:28:15;100745.13;;;6.37;100.00
27294;BME280;14785;52.556;13.430;2023-11-19T00:30:40;100747.56;;;6.18;100.00
27294;BME280;14785;52.556;13.430;2023-11-19T00:33:06;100739.97;;;6.04;100.00
27294;BME280;14785;52.556;13.430;2023-11-19T00:35:31;100730.06;;;6.17;100.00
27294;BME280;14785;52.556;13.430;2023-11-19T00:37:58;100731.22;;;6.24;100.00
27294;BME280;14785;52.556;13.430;2023-11-19T00:40:23;100734.84;;;6.23;100.00
27294;BME280;14785;52.556;13.430;2023-11-19T00:42:50;100719.06;;;6.12;100.00
27294;BME280;14785;52.556;13.430;2023-11-19T00:45:16;100706.63;;;6.03;100.00
27294;BME280;14785;52.556;13.430;2023-11-19T00:47:41;100703.00;;;6.04;100.00
27294;BME280;14785;52.556;13.430;2023-11-19T00:50:07;100688.91;;;6.15;100.00
27294;BME280;14785;52.556;13.430;2023-11-19T00:52:36;100686.13;;;6.57;100.00
27294;BME280;14785;52.556;13.430;2023-11-19T00:55:02;100676.28;;;6.18;100.00
27294;BME280;14785;52.556;13.430;2023-11-19T00:57:28;100675.91;;;6.23;100.00
27294;BME280;14785;52.556;13.430;2023-11-19T00:59:53;100672.59;;;6.30;100.00
27294;BME280;14785;52.556;13.430;2023-11-19T01:02:18;100673.63;;;6.59;100.00
27294;BME280;14785;52.556;13.430;2023-11-19T01:04:44;100653.06;;;6.33;100.00
27294;BME280;14785;52.556;13.430;2023-11-19T01:07:10;100645.50;;;6.28;100.00
27294;BME280;14785;52.556;13.430;2023-11-19T01:09:38;100642.19;;;6.56;100.00
27294;BME280;14785;52.556;13.430;2023-11-19T01:12:04;100637.91;;;6.65;100.00
27294;BME280;14785;52.556;13.430;2023-11-19T01:14:30;100620.69;;;6.40;100.00
27294;BME280;14785;52.556;13.430;2023-11-19T01:16:56;100594.97;;;6.42;100.00
27294;BME280;14785;52.556;13.430;2023-11-19T01:19:22;100581.16;;;6.29;100.00
27294;BME280;14785;52.556;13.430;2023-11-19T01:21:48;100573.69;;;6.34;100.00
27294;BME280;14785;52.556;13.430;2023-11-19T01:24:14;100573.88;;;6.22;100.00
27294;BME280;14785;52.556;13.430;2023-11-19T01:26:39;100570.84;;;6.26;100.00
27294;BME280;14785;52.556;13.430;2023-11-19T01:29:13;100566.03;;;6.41;100.00
27294;BME280;14785;52.556;13.430;2023-11-19T01:31:43;100577.88;;;6.16;100.00
27294;BME280;14785;52.556;13.430;2023-11-19T01:34:10;100564.84;;;6.24;100.00
27294;BME280;14785;52.556;13.430;2023-11-19T01:36:36;100558.63;;;6.25;100.00
27294;BME280;14785;52.556;13.430;2023-11-19T01:39:02;100557.19;;;6.21;100.00
27294;BME280;14785;52.556;13.430;2023-11-19T01:41:29;100555.09;;;6.15;100.00
27294;BME280;14785;52.556;13.430;2023-11-19T01:43:54;100542.78;;;6.25;100.00
27294;BME280;14785;52.556;13.430;2023-11-19T01:46:20;100530.16;;;6.08;100.00
27294;BME280;14785;52.556;13.430;2023-11-19T01:48:46;100523.47;;;6.04;100.00
27294;BME280;14785;52.556;13.430;2023-11-19T01:51:13;100508.09;;;6.09;100.00
27294;BME280;14785;52.556;13.430;2023-11-19T01:53:42;100498.88;;;6.34;100.00
27294;BME280;14785;52.556;13.430;2023-11-19T01:56:09;100492.66;;;6.44;100.00
27294;BME280;14785;52.556;13.430;2023-11-19T01:58:37;100487.72;;;6.30;100.00
27294;BME280;14785;52.556;13.430;2023-11-19T02:01:05;100476.16;;;6.61;100.00
27294;BME280;14785;52.556;13.430;2023-11-19T02:03:31;100478.63;;;6.53;100.00
27294;BME280;14785;52.556;13.430;2023-11-19T02:05:58;100478.06;;;6.40;100.00
27294;BME280;14785;52.556;13.430;2023-11-19T02:08:24;100476.63;;;6.27;100.00
27294;BME280;14785;52.556;13.430;2023-11-19T02:10:49;100453.91;;;6.15;100.00
27294;BME280;14785;52.556;13.430;2023-11-19T02:13:15;100432.34;;;6.10;100.00
27294;BME280;14785;52.556;13.430;2023-11-19T02:15:41;100420.31;;;6.26;100.00
27294;BME280;14785;52.556;13.430;2023-11-19T02:18:19;100409.38;;;6.40;100.00
27294;BME280;14785;52.556;13.430;2023-11-19T02:20:45;100405.59;;;6.33;100.00
27294;BME280;14785;52.556;13.430;2023-11-19T02:23:12;100403.47;;;6.27;100.00
27294;BME280;14785;52.556;13.430;2023-11-19T02:25:38;100405.28;;;6.17;100.00
27294;BME280;14785;52.556;13.430;2023-11-19T02:28:06;100408.66;;;6.38;100.00
27294;BME280;14785;52.556;13.430;2023-11-19T02:30:31;100405.75;;;6.41;100.00
27294;BME280;14785;52.556;13.430;2023-11-19T02:32:58;100392.94;;;6.37;100.00
27294;BME280;14785;52.556;13.430;2023-11-19T02:35:26;100388.88;;;6.23;100.00
27294;BME280;14785;52.556;13.430;2023-11-19T02:37:51;100374.34;;;6.48;100.00
27294;BME280;14785;52.556;13.430;2023-11-19T02:40:17;100372.13;;;6.43;100.00
27294;BME280;14785;52.556;13.430;2023-11-19T02:42:43;100363.75;;;6.38;100.00
27294;BME280;14785;52.556;13.430;2023-11-19T02:45:08;100353.44;;;6.16;100.00
27294;BME280;14785;52.556;13.430;2023-11-19T02:47:42;100355.44;;;6.52;100.00
27294;BME280;14785;52.556;13.430;2023-11-19T02:50:08;100346.78;;;6.41;100.00
27294;BME280;14785;52.556;13.430;2023-11-19T02:52:43;100344.59;;;6.46;100.00
27294;BME280;14785;52.556;13.430;2023-11-19T02:55:10;100334.88;;;6.46;100.00
27294;BME280;14785;52.556;13.430;2023-11-19T02:57:41;100322.88;;;6.42;100.00
27294;BME280;14785;52.556;13.430;2023-11-19T03:00:20;100316.50;;;6.54;100.00
27294;BME280;14785;52.556;13.430;2023-11-19T03:03:06;100300.38;;;6.67;100.00
27294;BME280;14785;52.556;13.430;2023-11-19T03:05:49;100295.66;;;6.42;100.00
27294;BME280;14785;52.556;13.430;2023-11-19T03:08:15;100294.81;;;6.41;100.00
27294;BME280;14785;52.556;13.430;2023-11-19T03:10:42;100287.59;;;6.43;100.00
27294;BME280;14785;52.556;13.430;2023-11-19T03:13:11;100300.09;;;6.51;100.00
27294;BME280;14785;52.556;13.430;2023-11-19T03:15:38;100304.81;;;6.47;100.00
27294;BME280;14785;52.556;13.430;2023-11-19T03:18:03;100302.44;;;6.63;100.00
27294;BME280;14785;52.556;13.430;2023-11-19T03:20:43;100293.41;;;6.56;100.00
27294;BME280;14785;52.556;13.430;2023-11-19T03:23:08;100305.66;;;6.57;100.00
27294;BME280;14785;52.556;13.430;2023-11-19T03:25:33;100307.03;;;6.52;100.00
27294;BME280;14785;52.556;13.430;2023-11-19T03:28:00;100304.53;;;6.41;100.00
27294;BME280;14785;52.556;13.430;2023-11-19T03:30:28;100306.75;;;6.45;100.00
27294;BME280;14785;52.556;13.430;2023-11-19T03:32:54;100305.09;;;6.25;100.00
27294;BME280;14785;52.556;13.430;2023-11-19T03:35:20;100285.78;;;6.15;100.00
27294;BME280;14785;52.556;13.430;2023-11-19T03:37:45;100283.81;;;6.17;100.00
27294;BME280;14785;52.556;13.430;2023-11-19T03:40:11;100270.34;;;6.20;100.00
27294;BME280;14785;52.556;13.430;2023-11-19T03:42:37;100260.88;;;6.08;100.00
27294;BME280;14785;52.556;13.430;2023-11-19T03:45:08;100256.16;;;5.93;100.00
27294;BME280;14785;52.556;13.430;2023-11-19T03:47:36;100257.78;;;5.84;100.00
27294;BME280;14785;52.556;13.430;2023-11-19T03:50:03;100256.16;;;6.02;100.00
27294;BME280;14785;52.556;13.430;2023-11-19T03:52:29;100260.47;;;6.03;100.00
27294;BME280;14785;52.556;13.430;2023-11-19T03:54:55;100259.19;;;5.88;100.00
27294;BME280;14785;52.556;13.430;2023-11-19T03:57:21;100239.69;;;5.70;100.00
27294;BME280;14785;52.556;13.430;2023-11-19T03:59:46;100227.16;;;5.72;100.00
27294;BME280;14785;52.556;13.430;2023-11-19T04:02:12;100237.25;;;5.88;100.00
27294;BME280;14785;52.556;13.430;2023-11-19T04:04:37;100237.81;;;5.91;100.00
27294;BME280;14785;52.556;13.430;2023-11-19T04:07:04;100233.09;;;6.14;100.00
27294;BME280;14785;52.556;13.430;2023-11-19T04:09:29;100224.34;;;6.13;100.00
27294;BME280;14785;52.556;13.430;2023-11-19T04:11:56;100213.22;;;6.00;100.00
27294;BME280;14785;52.556;13.430;2023-11-19T04:14:21;100200.03;;;5.91;100.00
27294;BME280;14785;52.556;13.430;2023-11-19T04:16:46;100190.31;;;5.91;100.00
27294;BME280;14785;52.556;13.430;2023-11-19T04:19:12;100197.25;;;5.92;100.00
27294;BME280;14785;52.556;13.430;2023-11-19T04:21:40;100186.84;;;6.00;100.00
27294;BME280;14785;52.556;13.430;2023-11-19T04:24:08;100187.50;;;6.21;100.00
27294;BME280;14785;52.556;13.430;2023-11-19T04:26:33;100182.22;;;6.02;100.00
27294;BME280;14785;52.556;13.430;2023-11-19T04:28:59;100180.84;;;5.98;100.00
27294;BME280;14785;52.556;13.430;2023-11-19T04:31:29;100177.94;;;6.01;100.00
27294;BME280;14785;52.556;13.430;2023-11-19T04:33:56;100176.13;;;6.11;100.00
27294;BME280;14785;52.556;13.430;2023-11-19T04:36:21;100172.78;;;6.00;100.00
27294;BME280;14785;52.556;13.430;2023-11-19T04:38:49;100177.78;;;5.93;100.00
27294;BME280;14785;52.556;13.430;2023-11-19T04:41:15;100179.19;;;6.16;100.00
27294;BME280;14785;52.556;13.430;2023-11-19T04:43:40;100173.91;;;6.16;100.00
27294;BME280;14785;52.556;13.430;2023-11-19T04:46:05;100178.47;;;5.85;100.00
27294;BME280;14785;52.556;13.430;2023-11-19T04:48:31;100176.13;;;5.92;100.00
27294;BME280;14785;52.556;13.430;2023-11-19T04:50:56;100170.56;;;5.95;100.00
27294;BME280;14785;52.556;13.430;2023-11-19T04:53:22;100164.47;;;5.85;100.00
27294;BME280;14785;52.556;13.430;2023-11-19T04:55:47;100159.31;;;5.83;100.00
27294;BME280;14785;52.556;13.430;2023-11-19T04:58:12;100162.38;;;5.98;100.00
27294;BME280;14785;52.556;13.430;2023-11-19T05:00:38;100148.78;;;5.83;100.00
27294;BME280;14785;52.556;13.430;2023-11-19T05:03:03;100148.34;;;5.88;100.00
27294;BME280;14785;52.556;13.430;2023-11-19T05:05:29;100137.19;;;5.75;100.00
27294;BME280;14785;52.556;13.430;2023-11-19T05:07:54;100122.63;;;5.71;100.00
27294;BME280;14785;52.556;13.430;2023-11-19T05:10:20;100129.03;;;5.88;100.00
27294;BME280;14785;52.556;13.430;2023-11-19T05:12:45;100118.34;;;5.89;100.00
27294;BME280;14785;52.556;13.430;2023-11-19T05:15:11;100115.28;;;6.03;100.00
27294;BME280;14785;52.556;13.430;2023-11-19T05:17:37;100103.47;;;6.07;100.00
27294;BME280;14785;52.556;13.430;2023-11-19T05:20:04;100081.38;;;5.70;100.00
27294;BME280;14785;52.556;13.430;2023-11-19T05:22:30;100067.50;;;5.68;100.00
27294;BME280;14785;52.556;13.430;2023-11-19T05:24:55;100069.47;;;5.85;100.00
27294;BME280;14785;52.556;13.430;2023-11-19T05:27:21;100072.50;;;5.71;100.00
27294;BME280;14785;52.556;13.430;2023-11-19T05:29:47;100084.31;;;5.86;100.00
27294;BME280;14785;52.556;13.430;2023-11-19T05:32:12;100078.06;;;5.87;100.00
27294;BME280;14785;52.556;13.430;2023-11-19T05:34:37;100075.81;;;5.73;100.00
27294;BME280;14785;52.556;13.430;2023-11-19T05:37:03;100064.72;;;5.69;100.00
27294;BME280;14785;52.556;13.430;2023-11-19T05:39:30;100066.94;;;5.74;100.00
27294;BME280;14785;52.556;13.430;2023-11-19T05:41:56;100072.22;;;5.74;100.00
27294;BME280;14785;52.556;13.430;2023-11-19T05:44:21;100059.44;;;5.79;100.00
27294;BME280;14785;52.556;13.430;2023-11-19T05:46:46;100050.44;;;5.62;100.00
27294;BME280;14785;52.556;13.430;2023-11-19T05:49:12;100056.66;;;5.80;100.00
27294;BME280;14785;52.556;13.430;2023-11-19T05:51:39;100050.72;;;5.88;100.00
27294;BME280;14785;52.556;13.430;2023-11-19T05:54:08;100029.28;;;5.72;100.00
27294;BME280;14785;52.556;13.430;2023-11-19T05:56:33;100034.16;;;5.76;100.00
27294;BME280;14785;52.556;13.430;2023-11-19T05:58:59;100053.63;;;5.85;100.00
27294;BME280;14785;52.556;13.430;2023-11-19T06:01:34;100020.44;;;5.73;100.00
27294;BME280;14785;52.556;13.430;2023-11-19T06:03:59;100014.88;;;5.66;100.00
27294;BME280;14785;52.556;13.430;2023-11-19T06:06:26;100009.88;;;5.73;100.00
27294;BME280;14785;52.556;13.430;2023-11-19T06:08:51;100022.50;;;5.79;100.00
27294;BME280;14785;52.556;13.430;2023-11-19T06:11:17;100028.91;;;5.86;100.00
27294;BME280;14785;52.556;13.430;2023-11-19T06:13:46;100025.28;;;5.87;100.00
27294;BME280;14785;52.556;13.430;2023-11-19T06:16:13;100026.09;;;5.97;100.00
27294;BME280;14785;52.556;13.430;2023-11-19T06:18:38;100017.34;;;5.87;100.00
27294;BME280;14785;52.556;13.430;2023-11-19T06:21:04;100009.44;;;5.87;100.00
27294;BME280;14785;52.556;13.430;2023-11-19T06:23:29;100002.50;;;5.86;100.00
27294;BME280;14785;52.556;13.430;2023-11-19T06:25:55;99996.09;;;5.88;100.00
27294;BME280;14785;52.556;13.430;2023-11-19T06:28:20;99988.88;;;5.91;100.00
27294;BME280;14785;52.556;13.430;2023-11-19T06:30:45;99988.88;;;6.00;100.00
27294;BME280;14785;52.556;13.430;2023-11-19T06:33:14;99985.94;;;6.03;100.00
27294;BME280;14785;52.556;13.430;2023-11-19T06:35:40;99975.97;;;5.97;100.00
27294;BME280;14785;52.556;13.430;2023-11-19T06:38:05;99964.69;;;6.05;100.00
27294;BME280;14785;52.556;13.430;2023-11-19T06:40:34;99964.47;;;6.16;100.00
27294;BME280;14785;52.556;13.430;2023-11-19T06:43:03;99975.19;;;6.14;100.00
27294;BME280;14785;52.556;13.430;2023-11-19T06:45:30;99984.09;;;6.13;100.00
27294;BME280;14785;52.556;13.430;2023-11-19T06:47:56;99974.91;;;6.17;100.00
27294;BME280;14785;52.556;13.430;2023-11-19T06:50:21;99983.44;;;6.29;100.00
27294;BME280;14785;52.556;13.430;2023-11-19T06:52:47;99968.94;;;6.15;100.00
27294;BME280;14785;52.556;13.430;2023-11-19T06:55:12;99970.03;;;6.22;100.00
27294;BME280;14785;52.556;13.430;2023-11-19T06:57:38;99954.94;;;6.05;100.00
27294;BME280;14785;52.556;13.430;2023-11-19T07:00:05;99957.69;;;6.13;100.00
27294;BME280;14785;52.556;13.430;2023-11-19T07:02:31;99959.31;;;6.24;100.00
27294;BME280;14785;52.556;13.430;2023-11-19T07:04:56;99941.94;;;6.21;100.00
27294;BME280;14785;52.556;13.430;2023-11-19T07:07:22;99949.91;;;6.12;100.00
27294;BME280;14785;52.556;13.430;2023-11-19T07:09:47;99964.03;;;6.20;100.00
27294;BME280;14785;52.556;13.430;2023-11-19T07:12:13;99954.06;;;6.14;100.00
27294;BME280;14785;52.556;13.430;2023-11-19T07:14:39;99951.28;;;6.16;100.00
27294;BME280;14785;52.556;13.430;2023-11-19T07:17:05;99961.84;;;6.16;100.00
27294;BME280;14785;52.556;13.430;2023-11-19T07:19:31;99972.69;;;6.49;100.00
27294;BME280;14785;52.556;13.430;2023-11-19T07:21:56;99980.94;;;6.37;100.00
27294;BME280;14785;52.556;13.430;2023-11-19T07:24:22;99969.03;;;6.23;100.00
27294;BME280;14785;52.556;13.430;2023-11-19T07:26:47;99965.69;;;6.21;100.00
27294;BME280;14785;52.556;13.430;2023-11-19T07:29:14;99970.22;;;6.38;100.00
27294;BME280;14785;52.556;13.430;2023-11-19T07:31:42;99959.50;;;6.40;100.00
27294;BME280;14785;52.556;13.430;2023-11-19T07:34:09;99956.22;;;6.28;100.00
27294;BME280;14785;52.556;13.430;2023-11-19T07:36:35;99953.69;;;6.36;100.00
27294;BME280;14785;52.556;13.430;2023-11-19T07:39:01;99956.81;;;6.49;100.00
27294;BME280;14785;52.556;13.430;2023-11-19T07:41:26;99944.50;;;6.40;100.00
27294;BME280;14785;52.556;13.430;2023-11-19T07:43:52;99956.13;;;6.47;100.00
27294;BME280;14785;52.556;13.430;2023-11-19T07:46:17;99969.03;;;6.77;100.00
27294;BME280;14785;52.556;13.430;2023-11-19T07:48:46;99959.94;;;6.62;100.00
27294;BME280;14785;52.556;13.430;2023-11-19T07:51:14;99956.50;;;6.79;100.00
27294;BME280;14785;52.556;13.430;2023-11-19T07:53:40;99963.44;;;6.80;100.00
27294;BME280;14785;52.556;13.430;2023-11-19T07:56:07;99959.31;;;6.95;100.00
27294;BME280;14785;52.556;13.430;2023-11-19T07:58:32;99952.28;;;6.86;100.00
27294;BME280;14785;52.556;13.430;2023-11-19T08:00:58;99951.22;;;6.79;100.00
27294;BME280;14785;52.556;13.430;2023-11-19T08:03:23;99960.28;;;6.94;100.00
27294;BME280;14785;52.556;13.430;2023-11-19T08:05:49;99964.19;;;6.90;100.00
27294;BME280;14785;52.556;13.430;2023-11-19T08:08:14;99957.25;;;6.89;100.00
27294;BME280;14785;52.556;13.430;2023-11-19T08:10:40;99964.97;;;7.00;100.00
27294;BME280;14785;52.556;13.430;2023-11-19T08:13:06;99954.25;;;7.19;100.00
27294;BME280;14785;52.556;13.430;2023-11-19T08:15:32;99955.75;;;7.04;100.00
27294;BME280;14785;52.556;13.430;2023-11-19T08:17:58;99952.28;;;7.04;100.00
27294;BME280;14785;52.556;13.430;2023-11-19T08:20:23;99946.97;;;7.21;100.00
27294;BME280;14785;52.556;13.430;2023-11-19T08:22:49;99946.84;;;7.05;100.00
27294;BME280;14785;52.556;13.430;2023-11-19T08:25:14;99936.41;;;7.04;100.00
27294;BME280;14785;52.556;13.430;2023-11-19T08:27:39;99935.16;;;7.08;100.00
27294;BME280;14785;52.556;13.430;2023-11-19T08:30:06;99932.41;;;7.60;100.00
27294;BME280;14785;52.556;13.430;2023-11-19T08:32:32;99921.91;;;7.25;100.00
27294;BME280;14785;52.556;13.430;2023-11-19T08:34:58;99922.44;;;7.54;100.00
27294;BME280;14785;52.556;13.430;2023-11-19T08:37:23;99916.44;;;7.70;100.00
27294;BME280;14785;52.556;13.430;2023-11-19T08:39:49;99900.69;;;7.43;100.00
27294;BME280;14785;52.556;13.430;2023-11-19T08:42:16;99898.59;;;7.46;100.00
27294;BME280;14785;52.556;13.430;2023-11-19T08:44:41;99917.91;;;7.72;100.00
27294;BME280;14785;52.556;13.430;2023-11-19T08:47:09;99894.00;;;7.56;100.00
27294;BME280;14785;52.556;13.430;2023-11-19T08:49:35;99915.66;;;7.77;100.00
27294;BME280;14785;52.556;13.430;2023-11-19T08:52:00;99917.34;;;7.35;100.00
27294;BME280;14785;52.556;13.430;2023-11-19T08:54:26;99888.09;;;7.62;100.00
27294;BME280;14785;52.556;13.430;2023-11-19T08:56:52;99899.81;;;7.86;100.00
27294;BME280;14785;52.556;13.430;2023-11-19T08:59:17;99891.19;;;7.83;100.00
27294;BME280;14785;52.556;13.430;2023-11-19T09:01:44;99895.13;;;8.05;100.00
27294;BME280;14785;52.556;13.430;2023-11-19T09:04:09;99909.94;;;8.24;100.00
27294;BME280;14785;52.556;13.430;2023-11-19T09:06:35;99905.56;;;8.15;100.00
27294;BME280;14785;52.556;13.430;2023-11-19T09:09:01;99902.44;;;8.19;100.00
27294;BME280;14785;52.556;13.430;2023-11-19T09:11:28;99902.53;;;8.35;100.00
27294;BME280;14785;52.556;13.430;2023-11-19T09:13:54;99902.88;;;8.40;100.00
27294;BME280;14785;52.556;13.430;2023-11-19T09:16:20;99929.16;;;8.00;100.00
27294;BME280;14785;52.556;13.430;2023-11-19T09:18:46;99927.13;;;8.20;100.00
27294;BME280;14785;52.556;13.430;2023-11-19T09:21:11;99926.13;;;8.21;100.00
27294;BME280;14785;52.556;13.430;2023-11-19T09:23:37;99901.00;;;8.25;100.00
27294;BME280;14785;52.556;13.430;2023-11-19T09:26:13;99941.09;;;8.30;100.00
27294;BME280;14785;52.556;13.430;2023-11-19T09:28:39;99940.69;;;8.17;100.00
27294;BME280;14785;52.556;13.430;2023-11-19T09:31:16;99947.09;;;8.40;100.00
27294;BME280;14785;52.556;13.430;2023-11-19T09:33:42;99935.53;;;8.41;100.00
27294;BME280;14785;52.556;13.430;2023-11-19T09:36:08;99930.66;;;8.78;100.00
27294;BME280;14785;52.556;13.430;2023-11-19T09:38:33;99918.34;;;8.61;100.00
27294;BME280;14785;52.556;13.430;2023-11-19T09:40:59;99925.38;;;8.94;100.00
27294;BME280;14785;52.556;13.430;2023-11-19T09:43:28;99922.38;;;8.97;100.00
27294;BME280;14785;52.556;13.430;2023-11-19T09:45:54;99922.59;;;9.11;100.00
27294;BME280;14785;52.556;13.430;2023-11-19T09:48:21;99912.28;;;9.40;100.00
27294;BME280;14785;52.556;13.430;2023-11-19T09:50:47;99918.09;;;9.36;100.00
27294;BME280;14785;52.556;13.430;2023-11-19T09:53:13;99919.59;;;9.54;100.00
27294;BME280;14785;52.556;13.430;2023-11-19T09:55:39;99907.13;;;9.63;100.00
27294;BME280;14785;52.556;13.430;2023-11-19T09:58:05;99901.13;;;9.69;100.00
27294;BME280;14785;52.556;13.430;2023-11-19T10:00:32;99914.69;;;9.90;100.00
27294;BME280;14785;52.556;13.430;2023-11-19T10:02:58;99916.13;;;10.25;100.00
27294;BME280;14785;52.556;13.430;2023-11-19T10:05:24;99905.84;;;10.14;100.00
27294;BME280;14785;52.556;13.430;2023-11-19T10:07:50;99900.38;;;10.15;100.00
27294;BME280;14785;52.556;13.430;2023-11-19T10:10:16;99896.66;;;10.24;100.00
27294;BME280;14785;52.556;13.430;2023-11-19T10:12:45;99900.72;;;10.04;100.00
27294;BME280;14785;52.556;13.430;2023-11-19T10:15:19;99897.41;;;10.02;100.00
27294;BME280;14785;52.556;13.430;2023-11-19T10:17:45;99894.41;;;10.13;100.00
27294;BME280;14785;52.556;13.430;2023-11-19T10:20:10;99898.78;;;10.67;100.00
27294;BME280;14785;52.556;13.430;2023-11-19T10:22:39;99896.06;;;10.75;100.00
27294;BME280;14785;52.556;13.430;2023-11-19T10:25:27;99891.13;;;10.64;100.00
27294;BME280;14785;52.556;13.430;2023-11-19T10:27:56;99887.53;;;10.57;100.00
27294;BME280;14785;52.556;13.430;2023-11-19T10:30:29;99883.06;;;10.58;100.00
27294;BME280;14785;52.556;13.430;2023-11-19T10:35:51;99880.47;;;10.72;100.00
27294;BME280;14785;52.556;13.430;2023-11-19T10:38:20;99865.81;;;10.99;100.00
27294;BME280;14785;52.556;13.430;2023-11-19T10:40:48;99857.78;;;11.58;100.00
27294;BME280;14785;52.556;13.430;2023-11-19T10:43:14;99844.41;;;11.67;100.00
27294;BME280;14785;52.556;13.430;2023-11-19T10:45:40;99835.72;;;11.35;100.00
27294;BME280;14785;52.556;13.430;2023-11-19T10:48:06;99833.75;;;11.15;100.00
27294;BME280;14785;52.556;13.430;2023-11-19T10:50:36;99831.13;;;11.29;100.00
27294;BME280;14785;52.556;13.430;2023-11-19T10:53:03;99839.16;;;11.21;100.00
27294;BME280;14785;52.556;13.430;2023-11-19T10:55:38;99839.72;;;11.31;100.00
27294;BME280;14785;52.556;13.430;2023-11-19T10:58:05;99839.00;;;11.37;100.00
27294;BME280;14785;52.556;13.430;2023-11-19T11:00:37;99846.38;;;11.35;100.00
27294;BME280;14785;52.556;13.430;2023-11-19T11:03:11;99846.09;;;11.45;100.00
27294;BME280;14785;52.556;13.430;2023-11-19T11:05:40;99850.59;;;11.44;100.00
27294;BME280;14785;52.556;13.430;2023-11-19T11:08:06;99848.84;;;11.51;100.00
27294;BME280;14785;52.556;13.430;2023-11-19T11:10:35;99846.75;;;11.61;100.00
27294;BME280;14785;52.556;13.430;2023-11-19T11:13:05;99854.69;;;11.70;100.00
27294;BME280;14785;52.556;13.430;2023-11-19T11:15:31;99847.81;;;12.04;100.00
27294;BME280;14785;52.556;13.430;2023-11-19T11:18:01;99835.56;;;12.10;100.00
27294;BME280;14785;52.556;13.430;2023-11-19T11:20:33;99836.13;;;12.20;100.00
27294;BME280;14785;52.556;13.430;2023-11-19T11:34:28;99811.00;;;12.50;100.00
27294;BME280;14785;52.556;13.430;2023-11-19T11:39:51;99804.50;;;12.94;100.00
27294;BME280;14785;52.556;13.430;2023-11-19T11:47:23;99812.91;;;12.77;100.00
27294;BME280;14785;52.556;13.430;2023-11-19T11:49:49;99800.91;;;12.66;100.00
27294;BME280;14785;52.556;13.430;2023-11-19T11:52:16;99809.50;;;12.62;100.00
27294;BME280;14785;52.556;13.430;2023-11-19T11:54:42;99804.91;;;12.56;100.00
27294;BME280;14785;52.556;13.430;2023-11-19T12:02:08;99798.78;;;12.55;100.00
27294;BME280;14785;52.556;13.430;2023-11-19T12:04:34;99804.09;;;12.55;100.00
27294;BME280;14785;52.556;13.430;2023-11-19T12:07:04;99813.94;;;12.55;100.00
27294;BME280;14785;52.556;13.430;2023-11-19T12:09:31;99803.38;;;12.68;100.00
27294;BME280;14785;52.556;13.430;2023-11-19T12:15:12;99807.66;;;12.62;100.00
27294;BME280;14785;52.556;13.430;2023-11-19T12:17:44;99802.78;;;12.66;100.00
27294;BME280;14785;52.556;13.430;2023-11-19T12:20:15;99817.69;;;12.60;100.00
27294;BME280;14785;52.556;13.430;2023-11-19T12:22:42;99789.06;;;12.69;100.00
27294;BME280;14785;52.556;13.430;2023-11-19T12:25:09;99812.91;;;12.56;100.00
27294;BME280;14785;52.556;13.430;2023-11-19T12:27:45;99802.97;;;12.64;100.00
27294;BME280;14785;52.556;13.430;2023-11-19T12:30:11;99807.47;;;12.64;100.00
27294;BME280;14785;52.556;13.430;2023-11-19T12:32:38;99802.50;;;12.61;100.00
27294;BME280;14785;52.556;13.430;2023-11-19T12:35:04;99804.53;;;12.59;100.00
27294;BME280;14785;52.556;13.430;2023-11-19T12:37:29;99813.28;;;12.53;100.00
27294;BME280;14785;52.556;13.430;2023-11-19T12:39:56;99793.09;;;12.65;100.00
27294;BME280;14785;52.556;13.430;2023-11-19T12:42:35;99808.00;;;12.38;100.00
27294;BME280;14785;52.556;13.430;2023-11-19T12:45:00;99817.13;;;12.29;100.00
27294;BME280;14785;52.556;13.430;2023-11-19T12:47:25;99814.84;;;12.26;100.00
27294;BME280;14785;52.556;13.430;2023-11-19T12:49:57;99814.22;;;12.10;100.00
27294;BME280;14785;52.556;13.430;2023-11-19T12:52:23;99824.16;;;12.16;100.00
27294;BME280;14785;52.556;13.430;2023-11-19T12:54:49;99854.97;;;12.04;100.00
27294;BME280;14785;52.556;13.430;2023-11-19T12:57:15;99853.59;;;12.08;100.00
27294;BME280;14785;52.556;13.430;2023-11-19T12:59:41;99850.44;;;12.19;100.00
27294;BME280;14785;52.556;13.430;2023-11-19T13:02:07;99849.53;;;12.12;100.00
27294;BME280;14785;52.556;13.430;2023-11-19T13:04:33;99840.44;;;12.21;100.00
27294;BME280;14785;52.556;13.430;2023-11-19T13:06:59;99826.34;;;12.27;100.00
27294;BME280;14785;52.556;13.430;2023-11-19T13:09:28;99823.88;;;12.25;100.00
27294;BME280;14785;52.556;13.430;2023-11-19T13:11:54;99808.84;;;12.39;100.00